Time;durP1;ratioP1;P1;durP2;ratioP2;P2;SDS_P1;SDS_P2;PMS_P1;PMS_P2;Temp;Humidity;BMP_temperature;BMP_pressure;BME280_temperature;BME280_humidity;BME280_pressure;Samples;Min_cycle;Max_cycle;Signal;HPM_P1;HPM_P2
2023/03/19 00:02:07;;;;;;;18.60;5.53;;;15.80;75.10;;;;;;5025535;28;20110;-56
2023/03/19 00:04:33;;;;;;;21.20;6.88;;;15.70;75.00;;;;;;5025236;28;20072;-55
2023/03/19 00:06:59;;;;;;;28.98;6.20;;;15.70;75.00;;;;;;5025506;28;20037;-56
2023/03/19 00:09:25;;;;;;;26.08;6.78;;;15.70;75.00;;;;;;5025264;28;20049;-55
2023/03/19 00:11:50;;;;;;;25.90;6.22;;;15.70;75.10;;;;;;5025282;28;20069;-55
2023/03/19 00:14:16;;;;;;;25.75;6.07;;;15.70;75.20;;;;;;5025093;28;20030;-55
2023/03/19 00:16:42;;;;;;;21.27;5.22;;;15.70;75.20;;;;;;5025220;28;20097;-55
2023/03/19 00:19:07;;;;;;;29.02;6.05;;;15.60;75.30;;;;;;5056828;28;20501;-55
2023/03/19 00:21:33;;;;;;;23.95;5.97;;;15.60;75.30;;;;;;5040294;28;20049;-56
2023/03/19 00:24:01;;;;;;;21.25;6.25;;;15.60;75.40;;;;;;5056115;28;20056;-55
2023/03/19 00:26:31;;;;;;;21.40;5.70;;;15.60;75.40;;;;;;5039707;28;20029;-55
2023/03/19 00:28:56;;;;;;;22.23;6.03;;;15.60;75.60;;;;;;5039862;28;20513;-56
2023/03/19 00:31:22;;;;;;;24.98;6.10;;;15.60;75.70;;;;;;5025080;28;20060;-55
2023/03/19 00:33:48;;;;;;;27.70;6.13;;;15.50;75.60;;;;;;5056613;28;20030;-56
2023/03/19 00:36:15;;;;;;;17.60;6.13;;;15.50;75.60;;;;;;5024993;28;20106;-55
2023/03/19 00:38:41;;;;;;;25.98;6.57;;;15.50;75.50;;;;;;5039900;28;20081;-55
2023/03/19 00:41:06;;;;;;;22.00;5.53;;;15.50;75.40;;;;;;5024790;28;20026;-55
2023/03/19 00:43:32;;;;;;;19.35;5.50;;;15.50;75.40;;;;;;5024881;28;20044;-56
2023/03/19 00:45:57;;;;;;;21.63;5.60;;;15.50;75.60;;;;;;5056631;28;20041;-56
2023/03/19 00:48:23;;;;;;;18.25;5.30;;;15.50;75.60;;;;;;5039993;28;20038;-55
2023/03/19 00:50:49;;;;;;;22.38;5.13;;;15.50;75.80;;;;;;5039651;28;20413;-55
2023/03/19 00:53:15;;;;;;;20.05;5.68;;;15.40;75.80;;;;;;5024810;28;20034;-55
2023/03/19 00:55:40;;;;;;;19.40;4.97;;;15.40;75.70;;;;;;5056421;28;20030;-55
2023/03/19 00:58:06;;;;;;;23.25;5.40;;;15.40;75.70;;;;;;5056470;28;20101;-55
2023/03/19 01:00:32;;;;;;;23.02;5.75;;;15.40;75.60;;;;;;5024873;28;20026;-55
2023/03/19 01:02:58;;;;;;;23.67;5.60;;;15.40;75.80;;;;;;5039781;28;20033;-55
2023/03/19 01:05:24;;;;;;;20.05;5.07;;;15.40;75.90;;;;;;5039688;28;20033;-56
2023/03/19 01:07:50;;;;;;;15.90;5.00;;;15.40;75.80;;;;;;5039604;28;20489;-55
2023/03/19 01:10:19;;;;;;;18.58;4.90;;;15.40;75.80;;;;;;5024466;28;20026;-56
2023/03/19 01:12:45;;;;;;;17.30;4.90;;;15.30;75.60;;;;;;5056454;28;20421;-55
2023/03/19 01:15:10;;;;;;;22.52;6.15;;;15.40;75.70;;;;;;5024499;28;20466;-55
2023/03/19 01:17:36;;;;;;;14.57;5.35;;;15.30;75.70;;;;;;5056178;28;20026;-55
2023/03/19 01:20:03;;;;;;;17.58;5.60;;;15.30;75.90;;;;;;5022967;28;20450;-55
2023/03/19 01:22:28;;;;;;;21.08;5.38;;;15.30;76.00;;;;;;5056345;28;20042;-56
2023/03/19 01:24:54;;;;;;;18.00;5.70;;;15.30;76.00;;;;;;5056055;28;20033;-55
2023/03/19 01:27:20;;;;;;;18.00;5.03;;;15.30;75.90;;;;;;5056168;28;20080;-55
2023/03/19 01:29:46;;;;;;;19.70;5.60;;;15.30;76.00;;;;;;5039348;28;20112;-55
2023/03/19 01:32:11;;;;;;;22.17;5.30;;;15.30;75.90;;;;;;5056246;28;20045;-55
2023/03/19 01:34:37;;;;;;;15.43;4.80;;;15.30;75.80;;;;;;5039223;28;20041;-55
2023/03/19 01:37:03;;;;;;;17.05;5.63;;;15.20;75.70;;;;;;5027212;28;20042;-55
2023/03/19 01:39:28;;;;;;;16.75;4.80;;;15.30;75.80;;;;;;5028116;28;20030;-56
2023/03/19 01:41:54;;;;;;;22.25;5.13;;;15.20;75.70;;;;;;5059665;28;20170;-55
2023/03/19 01:44:38;;;;;;;15.40;4.70;;;15.20;75.70;;;;;;5059528;28;20029;-56
2023/03/19 01:47:06;;;;;;;19.45;5.63;;;15.20;75.70;;;;;;5059597;28;20090;-56
2023/03/19 01:49:32;;;;;;;13.40;4.18;;;15.10;75.60;;;;;;5042636;28;20033;-55
2023/03/19 01:51:58;;;;;;;13.43;4.95;;;15.10;75.60;;;;;;5059186;28;20374;-56
2023/03/19 01:54:24;;;;;;;16.65;5.13;;;15.10;75.60;;;;;;5060097;28;20041;-55
2023/03/19 01:56:52;;;;;;;18.35;4.63;;;15.10;75.60;;;;;;5043217;28;20048;-56
2023/03/19 01:59:22;;;;;;;13.30;5.15;;;15.10;75.60;;;;;;5043160;28;20106;-55
2023/03/19 02:01:56;;;;;;;14.00;4.93;;;15.10;75.40;;;;;;5026492;28;20109;-55
2023/03/19 02:04:22;;;;;;;14.57;5.05;;;15.10;75.60;;;;;;5059629;28;20026;-56
2023/03/19 02:06:47;;;;;;;13.35;5.38;;;15.10;75.50;;;;;;5043039;28;20037;-55
2023/03/19 02:09:14;;;;;;;15.60;5.47;;;15.00;75.50;;;;;;5043250;28;20022;-55
2023/03/19 02:11:39;;;;;;;15.35;5.40;;;15.10;75.50;;;;;;5042782;28;20084;-56
2023/03/19 02:14:05;;;;;;;14.52;5.20;;;15.10;75.60;;;;;;5059332;28;20407;-55
2023/03/19 02:16:31;;;;;;;16.20;4.65;;;15.00;75.50;;;;;;5058912;28;20025;-56
2023/03/19 02:18:57;;;;;;;16.80;4.85;;;15.00;75.40;;;;;;5042979;28;20076;-55
2023/03/19 02:21:22;;;;;;;14.63;4.80;;;15.00;75.40;;;;;;5059150;28;20037;-55
2023/03/19 02:24:21;;;;;;;11.40;4.30;;;15.00;75.50;;;;;;5027086;28;20034;-55
2023/03/19 02:26:47;;;;;;;15.55;4.82;;;15.00;75.50;;;;;;5042156;28;20044;-56
2023/03/19 02:29:13;;;;;;;11.43;5.30;;;15.00;75.60;;;;;;5042005;28;20086;-55
2023/03/19 02:31:38;;;;;;;13.65;5.45;;;15.00;75.50;;;;;;5025520;28;20038;-55
2023/03/19 02:34:06;;;;;;;14.85;4.75;;;14.90;75.50;;;;;;5042083;28;20057;-55
2023/03/19 02:36:37;;;;;;;17.50;5.32;;;15.00;75.70;;;;;;5042012;28;20482;-55
2023/03/19 02:39:04;;;;;;;11.13;4.28;;;14.90;75.70;;;;;;5041939;28;20025;-56
2023/03/19 02:41:30;;;;;;;15.90;4.57;;;14.90;75.80;;;;;;5025248;28;20022;-55
2023/03/19 02:43:56;;;;;;;13.57;5.05;;;14.90;75.80;;;;;;5041907;28;20029;-55
2023/03/19 02:46:22;;;;;;;18.00;4.55;;;14.90;75.70;;;;;;5041809;28;20122;-56
2023/03/19 02:48:48;;;;;;;12.15;4.53;;;14.90;75.70;;;;;;5057425;28;20485;-56
2023/03/19 02:51:13;;;;;;;11.65;4.50;;;14.90;75.70;;;;;;5058053;28;20056;-55
2023/03/19 02:53:39;;;;;;;12.93;4.72;;;14.90;75.80;;;;;;5026567;28;20044;-55
2023/03/19 02:56:05;;;;;;;11.70;4.47;;;14.90;76.50;;;;;;5058236;28;20052;-56
2023/03/19 02:58:30;;;;;;;10.63;4.47;;;14.90;76.00;;;;;;5026450;28;20037;-55
2023/03/19 03:00:56;;;;;;;12.73;4.65;;;14.90;75.90;;;;;;5058073;28;20089;-56
2023/03/19 03:03:21;;;;;;;12.68;4.55;;;14.90;76.00;;;;;;5025057;28;20049;-55
2023/03/19 03:05:47;;;;;;;11.77;4.40;;;14.90;75.90;;;;;;5058043;28;20029;-56
2023/03/19 03:08:13;;;;;;;16.80;4.65;;;14.80;75.90;;;;;;5026245;28;20030;-56
2023/03/19 03:10:38;;;;;;;13.30;4.40;;;14.80;76.00;;;;;;5041176;28;20026;-55
2023/03/19 03:13:04;;;;;;;10.00;4.45;;;14.80;76.00;;;;;;5025995;28;20045;-55
2023/03/19 03:15:30;;;;;;;9.45;4.20;;;14.80;76.00;;;;;;5057574;28;20029;-56
2023/03/19 03:17:55;;;;;;;14.10;4.47;;;14.80;76.00;;;;;;5057566;28;20033;-56
2023/03/19 03:20:21;;;;;;;11.38;3.92;;;14.80;76.10;;;;;;5026028;28;20037;-56
2023/03/19 03:22:47;;;;;;;9.50;3.85;;;14.80;76.20;;;;;;5057723;28;20049;-56
2023/03/19 03:25:13;;;;;;;9.30;3.88;;;14.80;76.10;;;;;;5025976;28;20026;-56
2023/03/19 03:27:38;;;;;;;7.97;3.50;;;14.80;76.20;;;;;;5057666;28;20034;-55
2023/03/19 03:30:06;;;;;;;9.95;4.28;;;14.80;76.00;;;;;;5057442;28;20029;-55
2023/03/19 03:32:32;;;;;;;10.25;4.30;;;14.80;76.10;;;;;;5025757;28;20093;-55
2023/03/19 03:34:58;;;;;;;12.45;3.83;;;14.80;76.10;;;;;;5057360;28;20084;-56
2023/03/19 03:37:23;;;;;;;10.13;4.32;;;14.70;76.10;;;;;;5057363;28;20026;-55
2023/03/19 03:39:49;;;;;;;11.40;4.35;;;14.60;76.20;;;;;;5025618;28;20026;-55
2023/03/19 03:42:15;;;;;;;11.27;3.95;;;14.70;76.30;;;;;;5040421;28;20030;-55
2023/03/19 03:44:41;;;;;;;8.32;3.72;;;14.70;76.40;;;;;;5059051;28;20057;-55
2023/03/19 03:47:07;;;;;;;12.35;4.15;;;14.70;76.30;;;;;;5042801;28;20033;-55
2023/03/19 03:49:32;;;;;;;8.10;3.45;;;14.70;76.10;;;;;;5027043;28;20060;-55
2023/03/19 03:51:58;;;;;;;9.55;3.63;;;14.70;76.10;;;;;;5058553;28;20034;-57
2023/03/19 03:54:23;;;;;;;9.75;4.15;;;14.70;76.10;;;;;;5041018;28;20026;-57
2023/03/19 03:56:49;;;;;;;8.07;3.78;;;14.70;76.10;;;;;;5025972;28;20057;-57
2023/03/19 03:59:15;;;;;;;10.07;3.92;;;14.70;76.20;;;;;;5059245;28;20033;-57
2023/03/19 04:01:41;;;;;;;8.35;4.03;;;14.70;76.20;;;;;;5041408;28;20332;-58
2023/03/19 04:04:06;;;;;;;9.32;3.65;;;14.70;76.20;;;;;;5026423;28;20117;-57
2023/03/19 04:06:32;;;;;;;6.45;3.35;;;14.70;76.30;;;;;;5058264;28;20340;-58
2023/03/19 04:08:57;;;;;;;11.68;3.75;;;14.70;76.30;;;;;;5056958;28;20089;-58
2023/03/19 04:11:23;;;;;;;10.25;3.92;;;14.70;76.30;;;;;;5056853;28;20098;-58
2023/03/19 04:13:49;;;;;;;7.72;4.45;;;14.70;76.30;;;;;;5056900;28;20030;-57
2023/03/19 04:16:15;;;;;;;8.18;3.78;;;14.60;76.90;;;;;;5025306;28;20025;-58
2023/03/19 04:18:40;;;;;;;6.75;3.38;;;14.70;76.20;;;;;;5025231;28;20065;-58
2023/03/19 04:21:06;;;;;;;7.57;3.10;;;14.60;76.80;;;;;;5056696;28;20033;-57
2023/03/19 04:23:32;;;;;;;9.80;3.65;;;14.60;76.10;;;;;;5040149;28;20038;-58
2023/03/19 04:26:04;;;;;;;9.20;3.20;;;14.60;76.20;;;;;;5056665;28;20030;-57
2023/03/19 04:28:30;;;;;;;10.13;3.80;;;14.60;76.90;;;;;;5025192;28;20049;-57
2023/03/19 04:31:03;;;;;;;9.23;3.42;;;14.60;76.30;;;;;;5056775;28;20041;-57
2023/03/19 04:33:29;;;;;;;11.25;3.70;;;14.60;76.40;;;;;;5057037;28;20041;-57
2023/03/19 04:35:55;;;;;;;7.22;3.20;;;14.60;76.50;;;;;;5056574;28;20089;-58
2023/03/19 04:38:21;;;;;;;6.85;2.83;;;14.60;76.50;;;;;;5024971;28;20033;-57
2023/03/19 04:40:47;;;;;;;7.70;3.22;;;14.50;76.50;;;;;;5039905;28;20021;-58
2023/03/19 04:43:13;;;;;;;8.25;3.15;;;14.50;76.50;;;;;;5056337;28;20030;-58
2023/03/19 04:45:38;;;;;;;10.15;3.50;;;14.50;76.80;;;;;;5024765;28;20041;-57
2023/03/19 04:48:04;;;;;;;9.30;3.35;;;14.50;76.40;;;;;;5024710;28;20044;-57
2023/03/19 04:50:30;;;;;;;6.40;3.17;;;14.50;76.50;;;;;;5056237;28;20033;-57
2023/03/19 04:52:55;;;;;;;9.82;4.05;;;14.50;76.40;;;;;;5056276;28;20045;-58
2023/03/19 04:55:21;;;;;;;10.18;3.63;;;14.50;76.50;;;;;;5039572;28;20080;-57
2023/03/19 04:57:46;;;;;;;10.57;3.40;;;14.50;76.60;;;;;;5039488;28;20045;-57
2023/03/19 05:00:13;;;;;;;9.52;3.08;;;14.50;76.60;;;;;;5024492;28;20033;-57
2023/03/19 05:02:40;;;;;;;7.18;3.80;;;14.40;76.40;;;;;;5056181;28;20034;-58
2023/03/19 05:05:06;;;;;;;5.78;3.00;;;14.50;76.60;;;;;;5056171;28;20030;-58
2023/03/19 05:07:32;;;;;;;7.68;3.67;;;14.50;76.60;;;;;;5024761;28;20049;-57
2023/03/19 05:09:57;;;;;;;8.70;3.00;;;14.50;76.60;;;;;;5056030;28;20037;-58
2023/03/19 05:12:23;;;;;;;6.57;3.30;;;14.40;76.50;;;;;;5059953;28;20030;-58
2023/03/19 05:14:49;;;;;;;9.25;3.58;;;14.40;76.50;;;;;;5059942;28;20030;-58
2023/03/19 05:17:14;;;;;;;8.60;3.35;;;14.40;76.60;;;;;;5060129;28;20117;-58
2023/03/19 05:19:40;;;;;;;10.55;3.58;;;14.40;76.70;;;;;;5060129;28;20025;-58
2023/03/19 05:22:05;;;;;;;6.97;3.30;;;14.40;76.70;;;;;;5026876;28;20034;-57
2023/03/19 05:24:31;;;;;;;7.80;3.22;;;14.40;76.80;;;;;;5028268;28;20390;-57
2023/03/19 05:26:56;;;;;;;9.43;3.25;;;14.40;76.90;;;;;;5028123;28;20034;-58
2023/03/19 05:29:22;;;;;;;7.20;3.15;;;14.40;77.00;;;;;;5028218;28;20454;-57
2023/03/19 05:31:48;;;;;;;9.23;3.30;;;14.40;77.00;;;;;;5043151;28;20383;-57
2023/03/19 05:34:13;;;;;;;11.95;2.92;;;14.40;77.10;;;;;;5027856;28;20042;-57
2023/03/19 05:36:39;;;;;;;8.05;3.17;;;14.40;77.80;;;;;;5027968;28;20037;-57
2023/03/19 05:39:04;;;;;;;13.32;3.80;;;14.30;77.20;;;;;;5028105;28;20106;-58
2023/03/19 05:41:31;;;;;;;10.15;3.70;;;14.30;77.40;;;;;;5026553;28;20041;-58
2023/03/19 05:43:56;;;;;;;11.23;3.20;;;14.30;77.60;;;;;;5028063;28;20045;-58
2023/03/19 05:46:23;;;;;;;14.65;3.60;;;14.30;77.70;;;;;;5027917;28;20026;-58
2023/03/19 05:48:49;;;;;;;10.32;3.30;;;14.30;78.00;;;;;;5042683;28;20105;-58
2023/03/19 05:51:14;;;;;;;10.77;3.65;;;14.30;78.00;;;;;;5027544;28;20033;-58
2023/03/19 05:53:40;;;;;;;13.05;3.03;;;14.30;78.10;;;;;;5059303;28;20030;-58
2023/03/19 05:56:06;;;;;;;8.18;3.15;;;14.30;78.20;;;;;;5059480;28;20030;-58
2023/03/19 05:58:32;;;;;;;7.22;2.72;;;14.30;78.30;;;;;;5027492;28;20149;-58
2023/03/19 06:00:57;;;;;;;8.57;3.38;;;14.30;78.40;;;;;;5059213;28;20136;-58
2023/03/19 06:03:23;;;;;;;7.45;3.42;;;14.20;78.50;;;;;;5027508;28;20080;-57
2023/03/19 06:05:50;;;;;;;18.00;3.72;;;14.20;78.60;;;;;;5025964;28;20233;-57
2023/03/19 06:08:15;;;;;;;14.20;3.47;;;14.20;79.20;;;;;;5059280;28;20033;-58
2023/03/19 06:10:41;;;;;;;10.73;3.47;;;14.20;80.50;;;;;;5042348;28;20022;-58
2023/03/19 06:13:06;;;;;;;9.95;3.20;;;14.20;80.10;;;;;;5027329;28;20081;-57
2023/03/19 06:15:32;;;;;;;9.00;3.42;;;14.20;80.40;;;;;;5042302;28;20048;-58
2023/03/19 06:17:58;;;;;;;6.95;3.03;;;14.20;79.60;;;;;;5059233;28;20030;-58
2023/03/19 06:20:23;;;;;;;9.27;3.50;;;14.20;79.70;;;;;;5027084;28;20064;-58
2023/03/19 06:22:49;;;;;;;11.77;3.33;;;14.20;79.80;;;;;;5025561;28;20033;-57
2023/03/19 06:25:14;;;;;;;7.22;2.70;;;14.20;79.90;;;;;;5042222;28;20030;-57
2023/03/19 06:27:40;;;;;;;17.90;3.33;;;14.20;80.00;;;;;;5027114;28;20030;-58
2023/03/19 06:30:06;;;;;;;12.65;3.13;;;14.20;80.20;;;;;;5042153;28;20033;-57
2023/03/19 06:32:32;;;;;;;8.88;3.08;;;14.20;80.20;;;;;;5041870;28;20095;-58
2023/03/19 06:34:57;;;;;;;12.13;3.30;;;14.20;80.40;;;;;;5058572;28;20061;-58
2023/03/19 06:37:23;;;;;;;12.57;3.67;;;14.20;80.40;;;;;;5042079;28;20048;-58
2023/03/19 06:39:49;;;;;;;8.73;3.00;;;14.10;80.40;;;;;;5026888;28;20037;-57
2023/03/19 06:42:15;;;;;;;17.45;3.78;;;14.10;80.40;;;;;;5026630;28;20125;-58
2023/03/19 06:44:41;;;;;;;8.77;3.05;;;14.10;80.60;;;;;;5041853;28;20042;-58
2023/03/19 06:47:07;;;;;;;6.60;2.95;;;14.10;80.70;;;;;;5027063;28;20033;-57
2023/03/19 06:49:32;;;;;;;8.15;3.10;;;14.10;80.80;;;;;;5058655;28;20084;-58
2023/03/19 06:51:58;;;;;;;9.00;3.05;;;14.10;81.20;;;;;;5041748;28;20467;-57
2023/03/19 06:54:24;;;;;;;8.80;2.95;;;14.10;81.20;;;;;;5058210;28;20413;-58
2023/03/19 06:56:50;;;;;;;7.03;2.80;;;14.10;81.10;;;;;;5058243;28;20022;-58
2023/03/19 06:59:16;;;;;;;11.52;3.30;;;14.10;81.00;;;;;;5058009;28;20022;-58
2023/03/19 07:01:41;;;;;;;6.70;2.55;;;14.10;81.10;;;;;;5057972;28;20026;-58
2023/03/19 07:04:08;;;;;;;6.80;3.10;;;14.10;81.00;;;;;;5024861;28;20032;-58
2023/03/19 07:06:33;;;;;;;7.05;3.00;;;14.10;81.10;;;;;;5057848;28;20033;-58
2023/03/19 07:08:59;;;;;;;6.43;2.75;;;14.10;81.30;;;;;;5058142;28;20348;-58
2023/03/19 07:11:25;;;;;;;10.52;2.97;;;14.10;81.30;;;;;;5057956;28;20064;-58
2023/03/19 07:13:51;;;;;;;12.25;3.35;;;14.10;81.50;;;;;;5026262;28;20152;-58
2023/03/19 07:16:16;;;;;;;10.70;2.90;;;14.10;81.60;;;;;;5041189;28;20222;-58
2023/03/19 07:18:42;;;;;;;7.00;3.17;;;14.10;82.20;;;;;;5057956;28;20093;-58
2023/03/19 07:21:07;;;;;;;9.90;3.00;;;14.10;82.20;;;;;;5025752;28;20022;-58
2023/03/19 07:23:33;;;;;;;5.72;2.72;;;14.10;82.00;;;;;;5057423;28;20030;-58
2023/03/19 07:25:58;;;;;;;5.97;2.92;;;14.10;82.00;;;;;;5026045;28;20093;-58
2023/03/19 07:28:24;;;;;;;6.60;2.90;;;14.10;82.10;;;;;;5041075;28;20038;-58
2023/03/19 07:30:53;;;;;;;8.23;2.83;;;14.10;82.20;;;;;;5026014;28;20030;-58
2023/03/19 07:33:19;;;;;;;6.00;2.55;;;14.10;82.20;;;;;;5040443;28;20036;-58
2023/03/19 07:35:45;;;;;;;12.20;2.67;;;14.10;82.20;;;;;;5057359;28;20022;-57
2023/03/19 07:38:11;;;;;;;9.40;2.75;;;14.10;82.20;;;;;;5057661;28;20030;-58
2023/03/19 07:40:36;;;;;;;9.30;3.17;;;14.10;82.20;;;;;;5025767;28;20026;-58
2023/03/19 07:43:02;;;;;;;9.60;3.00;;;14.20;82.40;;;;;;5040843;28;20034;-57
2023/03/19 07:45:28;;;;;;;10.23;2.92;;;14.10;82.20;;;;;;5040729;28;20415;-57
2023/03/19 07:47:53;;;;;;;14.35;3.20;;;14.10;82.70;;;;;;5057147;28;20223;-58
2023/03/19 07:50:19;;;;;;;11.63;3.28;;;14.20;82.10;;;;;;5040339;28;20030;-57
2023/03/19 07:52:48;;;;;;;6.40;2.97;;;14.20;82.00;;;;;;5023970;28;20033;-58
2023/03/19 07:55:14;;;;;;;8.88;3.05;;;14.20;82.00;;;;;;5040240;28;20080;-58
2023/03/19 07:57:39;;;;;;;12.10;2.97;;;14.20;81.80;;;;;;5025436;28;20082;-58
2023/03/19 08:00:06;;;;;;;11.63;2.70;;;14.20;81.70;;;;;;5040519;28;20026;-58
2023/03/19 08:02:32;;;;;;;7.28;2.90;;;14.20;81.80;;;;;;5056840;28;20034;-58
2023/03/19 08:05:00;;;;;;;7.40;2.78;;;14.20;81.80;;;;;;5040520;28;20021;-58
2023/03/19 08:07:26;;;;;;;6.65;3.05;;;14.20;81.80;;;;;;5025185;28;20033;-58
2023/03/19 08:09:52;;;;;;;5.32;2.67;;;14.20;81.70;;;;;;5025344;28;20040;-58
2023/03/19 08:12:17;;;;;;;5.65;2.47;;;14.20;81.80;;;;;;5057114;28;20044;-58
2023/03/19 08:14:43;;;;;;;11.68;2.63;;;14.30;81.90;;;;;;5056729;28;20094;-58
2023/03/19 08:17:08;;;;;;;4.32;1.95;;;14.30;81.90;;;;;;5040241;28;20061;-57
2023/03/19 08:19:34;;;;;;;7.18;2.65;;;14.30;81.90;;;;;;5056794;28;20049;-57
2023/03/19 08:22:00;;;;;;;7.78;2.38;;;14.30;81.70;;;;;;5025113;28;20061;-58
2023/03/19 08:24:25;;;;;;;5.40;2.38;;;14.40;81.60;;;;;;5040200;28;20029;-58
2023/03/19 08:26:51;;;;;;;4.18;2.17;;;14.40;81.50;;;;;;5056858;28;20034;-57
2023/03/19 08:29:16;;;;;;;5.07;2.25;;;14.40;81.40;;;;;;5039873;28;20129;-57
2023/03/19 08:31:42;;;;;;;6.75;2.28;;;14.40;81.40;;;;;;5024862;28;20037;-58
2023/03/19 08:34:09;;;;;;;5.40;2.58;;;14.40;81.30;;;;;;5039882;28;20093;-58
2023/03/19 08:36:35;;;;;;;4.93;2.72;;;14.50;81.30;;;;;;5039750;28;20026;-58
2023/03/19 08:39:00;;;;;;;8.93;2.70;;;14.50;81.20;;;;;;5040035;28;20037;-58
2023/03/19 08:41:26;;;;;;;7.97;2.80;;;14.50;81.20;;;;;;5039792;28;20056;-58
2023/03/19 08:43:52;;;;;;;6.82;2.60;;;14.50;81.20;;;;;;5056701;28;20048;-58
2023/03/19 08:46:17;;;;;;;4.95;2.10;;;14.50;81.20;;;;;;5058248;28;20029;-57
2023/03/19 08:48:43;;;;;;;6.90;2.33;;;14.60;81.10;;;;;;5028928;28;20103;-58
2023/03/19 08:51:09;;;;;;;5.63;2.58;;;14.60;81.70;;;;;;5060429;28;20381;-57
2023/03/19 08:53:35;;;;;;;7.80;2.42;;;14.60;81.00;;;;;;5060570;28;20427;-57
2023/03/19 08:56:02;;;;;;;7.72;2.42;;;14.60;80.90;;;;;;5043864;28;20121;-58
2023/03/19 08:58:28;;;;;;;4.75;2.83;;;14.60;80.80;;;;;;5060142;28;20064;-58
2023/03/19 09:00:59;;;;;;;6.65;2.10;;;14.60;80.70;;;;;;5060468;28;20030;-58
2023/03/19 09:03:25;;;;;;;9.85;2.70;;;14.70;80.70;;;;;;5059063;28;20437;-58
2023/03/19 09:05:50;;;;;;;5.45;2.33;;;14.70;80.60;;;;;;5028712;28;20041;-58
2023/03/19 09:08:16;;;;;;;9.82;2.75;;;14.80;80.60;;;;;;5060513;28;20497;-58
2023/03/19 09:10:41;;;;;;;12.40;2.97;;;14.80;80.40;;;;;;5028725;28;20422;-58
2023/03/19 09:13:07;;;;;;;7.60;2.13;;;14.80;80.30;;;;;;5028626;28;20056;-58
2023/03/19 09:15:32;;;;;;;6.43;2.40;;;14.80;80.30;;;;;;5028613;28;20089;-57
2023/03/19 09:17:58;;;;;;;8.05;2.70;;;14.90;80.20;;;;;;5043572;28;20100;-57
2023/03/19 09:20:23;;;;;;;6.75;2.47;;;14.90;79.90;;;;;;5043527;28;20025;-57
2023/03/19 09:22:49;;;;;;;12.98;2.85;;;14.90;79.80;;;;;;5028281;28;20053;-57
2023/03/19 09:25:15;;;;;;;5.80;2.42;;;15.00;79.80;;;;;;5059859;28;20052;-57
2023/03/19 09:27:40;;;;;;;14.63;3.10;;;15.00;79.70;;;;;;5060163;28;20041;-57
2023/03/19 09:30:08;;;;;;;17.10;3.75;;;15.00;79.60;;;;;;5027973;28;20034;-58
2023/03/19 09:32:34;;;;;;;18.92;3.65;;;15.00;79.50;;;;;;5026560;28;20068;-58
2023/03/19 09:35:00;;;;;;;15.43;3.05;;;15.10;79.50;;;;;;5059204;28;20026;-58
2023/03/19 09:37:25;;;;;;;13.73;3.33;;;15.10;79.40;;;;;;5042963;28;20030;-58
2023/03/19 09:39:51;;;;;;;17.88;3.10;;;15.10;79.00;;;;;;5027827;28;20033;-57
2023/03/19 09:42:41;;;;;;;12.90;2.85;;;15.10;78.90;;;;;;5043038;28;20041;-57
2023/03/19 09:45:11;;;;;;;20.95;4.13;;;15.20;78.90;;;;;;5027500;28;20045;-58
2023/03/19 09:47:38;;;;;;;39.97;5.60;;;15.20;78.90;;;;;;5042280;28;20037;-58
2023/03/19 09:50:14;;;;;;;36.65;5.30;;;15.30;79.20;;;;;;5043575;28;20034;-57
2023/03/19 09:52:49;;;;;;;;;;;15.30;79.10;;;;;;5060243;28;20117;-57
2023/03/19 09:55:42;;;;;;;44.35;6.18;;;15.40;79.00;;;;;;5059642;28;20012;-57
2023/03/19 09:58:24;;;;;;;73.30;7.88;;;15.40;79.00;;;;;;5027521;28;20026;-58
2023/03/19 10:00:50;;;;;;;63.15;7.95;;;15.50;79.00;;;;;;5040994;28;20085;-58
2023/03/19 10:03:22;;;;;;;134.95;12.77;;;15.50;79.20;;;;;;5042664;28;20018;-58
2023/03/19 10:05:51;;;;;;;66.85;9.30;;;15.60;79.40;;;;;;5027328;28;20029;-58
2023/03/19 10:08:38;;;;;;;73.38;9.15;;;15.60;80.20;;;;;;5058615;28;20443;-57
2023/03/19 10:11:14;;;;;;;76.00;10.02;;;15.70;79.40;;;;;;5042391;28;20132;-58
2023/03/19 10:13:39;;;;;;;102.00;10.90;;;15.80;79.20;;;;;;5042815;28;20037;-57
2023/03/19 10:16:06;;;;;;;113.55;12.65;;;15.80;79.00;;;;;;5027031;28;20398;-57
2023/03/19 10:18:34;;;;;;;145.07;16.30;;;15.80;79.50;;;;;;5025727;28;20060;-57
2023/03/19 10:21:11;;;;;;;159.52;17.60;;;15.90;79.60;;;;;;5025726;28;20034;-58
2023/03/19 10:23:53;;;;;;;151.77;17.27;;;16.00;79.80;;;;;;5009169;28;20482;-58
2023/03/19 10:26:20;;;;;;;187.07;19.17;;;16.00;79.70;;;;;;5025650;28;20029;-57
2023/03/19 10:28:57;;;;;;;178.35;17.00;;;16.10;79.80;;;;;;5041566;28;20029;-58
2023/03/19 10:31:26;;;;;;;153.15;16.25;;;16.10;79.60;;;;;;5025889;28;20034;-58
2023/03/19 10:34:18;;;;;;;161.65;17.38;;;16.20;79.80;;;;;;5024882;28;20038;-58
2023/03/19 10:36:44;;;;;;;81.00;10.98;;;16.20;79.10;;;;;;5025181;28;20030;-58
2023/03/19 10:39:13;;;;;;;94.82;12.07;;;16.30;78.10;;;;;;5025097;28;20034;-58
2023/03/19 10:42:13;;;;;;;82.25;11.70;;;16.30;77.90;;;;;;5024879;28;20026;-58
2023/03/19 10:44:59;;;;;;;194.93;19.63;;;16.40;77.70;;;;;;5026337;28;20026;-58
2023/03/19 10:47:25;;;;;;;152.65;21.30;;;16.40;78.20;;;;;;5009615;28;20034;-58
2023/03/19 10:49:50;;;;;;;203.60;22.45;;;16.40;78.30;;;;;;5024908;28;20124;-58
2023/03/19 10:52:23;;;;;;;200.73;21.95;;;16.50;78.70;;;;;;5024890;28;20372;-58
2023/03/19 10:54:53;;;;;;;175.38;21.10;;;16.50;78.50;;;;;;5024481;28;20041;-58
2023/03/19 10:57:27;;;;;;;194.00;22.92;;;16.60;78.40;;;;;;5024552;28;20093;-58
2023/03/19 10:59:52;;;;;;;222.65;24.10;;;16.60;78.60;;;;;;5024383;28;20425;-58
2023/03/19 11:02:21;;;;;;;314.98;35.30;;;16.70;78.70;;;;;;5024247;28;20084;-58
2023/03/19 11:04:46;;;;;;;228.50;27.13;;;16.70;78.90;;;;;;5024066;28;20454;-58
2023/03/19 11:07:22;;;;;;;301.55;31.33;;;16.80;78.90;;;;;;5024180;28;20068;-58
2023/03/19 11:09:48;;;;;;;264.92;27.92;;;16.80;79.30;;;;;;5023072;28;20033;-57
2023/03/19 11:12:26;;;;;;;248.35;31.00;;;16.80;79.20;;;;;;5024222;28;20034;-58
2023/03/19 11:14:52;;;;;;;304.10;30.52;;;16.90;79.60;;;;;;5024060;28;20363;-58
2023/03/19 11:17:38;;;;;;;246.85;26.33;;;17.00;79.70;;;;;;5023663;28;20033;-58
2023/03/19 11:20:26;;;;;;;230.05;27.35;;;17.00;79.40;;;;;;5024587;28;20033;-58
2023/03/19 11:22:52;;;;;;;239.57;26.17;;;17.10;79.60;;;;;;5024542;28;20049;-58
2023/03/19 11:25:27;;;;;;;285.83;30.05;;;17.10;79.10;;;;;;5029531;28;20098;-58
2023/03/19 11:28:13;;;;;;;280.42;28.75;;;17.10;79.40;;;;;;5042125;28;20033;-57
2023/03/19 11:31:03;;;;;;;296.33;33.25;;;17.10;79.40;;;;;;5043346;28;20474;-57
2023/03/19 11:33:53;;;;;;;297.20;33.95;;;17.20;79.60;;;;;;5042926;28;20097;-58
2023/03/19 11:36:27;;;;;;;330.52;34.53;;;17.20;79.10;;;;;;5043140;28;20028;-58
2023/03/19 11:38:53;;;;;;;310.30;34.53;;;17.20;79.30;;;;;;5041531;28;20061;-58
2023/03/19 11:41:49;;;;;;;245.27;29.83;;;17.30;79.40;;;;;;5043908;28;20025;-58
2023/03/19 11:44:16;;;;;;;280.70;31.98;;;17.30;79.60;;;;;;5043971;28;20096;-58
2023/03/19 11:46:53;;;;;;;330.08;36.00;;;17.40;79.80;;;;;;5041241;28;20030;-58
2023/03/19 11:49:59;;;;;;;369.45;42.35;;;17.40;79.50;;;;;;5042301;28;20445;-58
2023/03/19 11:52:40;;;;;;;376.33;41.88;;;17.50;79.20;;;;;;5040964;28;20041;-58
2023/03/19 11:55:23;;;;;;;315.00;33.10;;;17.50;79.10;;;;;;5036400;28;20034;-58
2023/03/19 11:57:59;;;;;;;356.80;34.70;;;17.50;78.90;;;;;;5035924;28;20046;-58
2023/03/19 12:00:47;;;;;;;319.50;33.20;;;17.60;79.00;;;;;;5035807;28;20048;-58
2023/03/19 12:03:52;;;;;;;323.23;35.97;;;17.60;79.00;;;;;;5038767;28;20116;-58
2023/03/19 12:06:49;;;;;;;337.50;34.58;;;17.60;78.60;;;;;;5027950;28;20089;-58
2023/03/19 12:09:18;;;;;;;251.05;29.05;;;17.70;78.30;;;;;;5037822;28;20113;-58
2023/03/19 12:12:05;;;;;;;282.60;31.55;;;17.80;77.90;;;;;;5040859;28;20029;-58
2023/03/19 12:14:43;;;;;;;295.85;34.80;;;17.80;78.10;;;;;;5037968;28;20036;-58
2023/03/19 12:17:21;;;;;;;202.65;26.55;;;17.80;78.30;;;;;;5049022;28;20117;-58
2023/03/19 12:20:11;;;;;;;204.52;25.02;;;17.80;78.00;;;;;;5061766;28;20037;-58
2023/03/19 12:22:49;;;;;;;225.20;25.63;;;17.80;76.90;;;;;;5039754;28;20030;-58
2023/03/19 12:25:39;;;;;;;267.05;31.25;;;17.80;77.10;;;;;;5038402;28;20031;-58
2023/03/19 12:28:32;;;;;;;282.58;29.42;;;17.90;77.80;;;;;;5022188;28;20104;-54
2023/03/19 12:31:35;;;;;;;264.42;29.27;;;17.90;77.50;;;;;;5042204;28;20030;-56
2023/03/19 12:34:23;;;;;;;351.17;37.40;;;18.00;77.50;;;;;;5058977;28;20090;-55
2023/03/19 12:37:05;;;;;;;245.40;28.27;;;18.00;77.40;;;;;;5049458;28;20045;-55
2023/03/19 12:39:36;;;;;;;259.27;28.95;;;18.00;77.30;;;;;;5031939;28;20183;-56
2023/03/19 12:42:03;;;;;;;206.25;25.92;;;18.00;77.20;;;;;;5048838;28;20494;-55
2023/03/19 12:44:39;;;;;;;232.48;26.60;;;18.10;77.50;;;;;;5027770;28;20052;-55